createdAt,value
2023-03-03T00:03:04.712Z,17.48
2023-03-03T00:08:06.919Z,17.15
2023-03-03T00:13:25.903Z,18.70
2023-03-03T00:18:35.836Z,18.38
2023-03-03T00:23:39.591Z,19.42
2023-03-03T00:28:47.348Z,18.55
2023-03-03T00:33:54.843Z,20.42
2023-03-03T00:39:17.385Z,19.98
2023-03-03T00:44:32.507Z,20.10
2023-03-03T00:49:34.586Z,20.65
2023-03-03T00:54:36.641Z,21.45
2023-03-03T00:59:39.501Z,20.52
2023-03-03T01:04:43.267Z,23.02
2023-03-03T01:09:45.657Z,22.20
2023-03-03T01:14:49.436Z,20.90
2023-03-03T01:19:51.511Z,22.25
2023-03-03T01:24:53.895Z,22.60
2023-03-03T01:29:56.720Z,21.75
2023-03-03T01:34:58.840Z,23.17
2023-03-03T01:40:00.922Z,21.77
2023-03-03T01:45:28.810Z,23.65
2023-03-03T01:50:50.310Z,21.45
2023-03-03T01:55:53.441Z,21.42
2023-03-03T02:01:00.815Z,22.98
2023-03-03T02:06:11.170Z,20.67
2023-03-03T02:11:14.967Z,20.98
2023-03-03T02:16:17.342Z,20.00
2023-03-03T02:21:26.653Z,20.75
2023-03-03T02:26:31.742Z,21.00
2023-03-03T02:31:38.922Z,19.90
2023-03-03T02:36:41.332Z,19.83
2023-03-03T02:41:45.268Z,19.73
2023-03-03T02:46:50.484Z,20.08
2023-03-03T02:51:53.406Z,20.42
2023-03-03T02:56:55.604Z,17.95
2023-03-03T03:01:57.930Z,18.40
2023-03-03T03:07:00.484Z,17.40
2023-03-03T03:12:05.373Z,15.57
2023-03-03T03:17:11.702Z,17.55
2023-03-03T03:22:14.364Z,11.50
2023-03-03T03:27:16.642Z,11.70
2023-03-03T03:32:19.626Z,12.45
2023-03-03T03:37:22.100Z,12.07
2023-03-03T03:42:24.706Z,12.52
2023-03-03T03:47:28.931Z,12.25
2023-03-03T03:52:33.175Z,11.88
2023-03-03T03:57:35.473Z,11.85
2023-03-03T04:02:38.341Z,11.40
2023-03-03T04:07:40.764Z,13.98
2023-03-03T04:12:44.111Z,13.43
2023-03-03T04:17:49.072Z,13.23
2023-03-03T04:22:51.277Z,12.93
2023-03-03T04:27:54.390Z,12.98
2023-03-03T04:32:57.855Z,12.77
2023-03-03T04:38:02.460Z,13.00
2023-03-03T04:43:05.206Z,13.10
2023-03-03T04:48:08.428Z,13.20
2023-03-03T04:53:11.604Z,11.98
2023-03-03T04:58:16.090Z,12.65
2023-03-03T05:03:19.714Z,11.52
2023-03-03T05:08:22.712Z,11.98
2023-03-03T05:13:24.795Z,12.40
2023-03-03T05:18:28.063Z,12.38
2023-03-03T05:23:31.372Z,11.02
2023-03-03T05:28:34.090Z,12.68
2023-03-03T05:33:36.560Z,22.95
2023-03-03T05:38:38.657Z,12.93
2023-03-03T05:43:40.769Z,11.70
2023-03-03T05:48:43.205Z,11.35
2023-03-03T05:53:45.425Z,11.23
2023-03-03T05:58:47.564Z,12.18
2023-03-03T06:03:49.751Z,13.00
2023-03-03T06:08:55.528Z,13.25
2023-03-03T06:13:59.231Z,13.65
2023-03-03T06:19:01.499Z,14.75
2023-03-03T06:24:03.627Z,14.32
2023-03-03T06:29:05.754Z,17.92
2023-03-03T06:34:08.135Z,13.63
2023-03-03T06:39:10.657Z,13.02
2023-03-03T06:44:13.031Z,14.05
2023-03-03T06:49:15.376Z,13.90
2023-03-03T06:54:20.369Z,12.55
2023-03-03T06:59:22.534Z,12.48
2023-03-03T07:04:33.948Z,13.25
2023-03-03T07:09:36.112Z,13.85
2023-03-03T07:14:44.129Z,12.65
2023-03-03T07:19:47.432Z,12.82
2023-03-03T07:24:53.027Z,12.95
2023-03-03T07:30:26.454Z,12.50
2023-03-03T07:35:31.691Z,12.20
2023-03-03T07:40:38.093Z,14.98
2023-03-03T07:45:40.720Z,11.02
2023-03-03T07:50:42.883Z,10.88
2023-03-03T07:55:45.890Z,12.95
2023-03-03T08:01:35.768Z,10.45
2023-03-03T08:06:46.520Z,9.07
2023-03-03T08:12:06.776Z,7.93
2023-03-03T08:17:20.530Z,8.13
2023-03-03T08:22:33.306Z,7.88
2023-03-03T08:27:35.357Z,8.10
2023-03-03T08:32:37.458Z,7.82
2023-03-03T08:37:39.543Z,6.78
2023-03-03T08:42:41.692Z,6.97
2023-03-03T08:47:44.965Z,6.57
2023-03-03T08:52:47.669Z,6.97
2023-03-03T08:57:49.873Z,6.90
2023-03-03T09:02:52.670Z,5.88
2023-03-03T09:07:55.940Z,25.17
2023-03-03T09:13:02.181Z,6.82
2023-03-03T09:18:18.775Z,5.50
2023-03-03T09:23:57.782Z,4.63
2023-03-03T09:29:07.666Z,4.75
2023-03-03T09:34:28.128Z,5.18
2023-03-03T09:39:31.732Z,5.93
2023-03-03T09:44:51.637Z,6.53
2023-03-03T09:50:03.010Z,8.57
2023-03-03T10:00:16.304Z,7.30
2023-03-03T10:05:45.550Z,6.18
2023-03-03T10:10:55.859Z,6.32
2023-03-03T10:16:22.584Z,7.18
2023-03-03T10:21:27.731Z,6.90
2023-03-03T10:27:12.426Z,6.57
2023-03-03T10:32:27.352Z,5.15
2023-03-03T10:37:49.096Z,5.45
2023-03-03T10:43:30.973Z,4.88
2023-03-03T10:48:39.805Z,5.95
2023-03-03T10:54:04.198Z,7.05
2023-03-03T10:59:57.647Z,4.55
2023-03-03T11:05:13.591Z,4.22
2023-03-03T11:10:48.484Z,4.00
2023-03-03T11:16:04.688Z,4.97
2023-03-03T11:21:39.274Z,4.80
2023-03-03T11:27:39.128Z,5.18
2023-03-03T11:32:59.071Z,4.05
2023-03-03T11:38:28.159Z,8.95
2023-03-03T11:43:36.993Z,4.05
2023-03-03T11:48:51.406Z,8.30
2023-03-03T11:54:22.319Z,3.92
2023-03-03T11:59:48.037Z,6.38
2023-03-03T12:04:55.617Z,3.47
2023-03-03T12:10:21.608Z,4.05
2023-03-03T12:15:26.412Z,4.07
2023-03-03T12:20:56.508Z,3.10
2023-03-03T12:26:13.092Z,3.10
2023-03-03T12:31:50.278Z,3.80
2023-03-03T12:37:28.785Z,3.85
2023-03-03T12:42:58.836Z,3.53
2023-03-03T12:48:13.139Z,3.00
2023-03-03T12:53:59.491Z,4.10
2023-03-03T12:59:11.757Z,3.70
2023-03-03T13:04:29.418Z,3.60
2023-03-03T13:10:08.843Z,2.72
2023-03-03T13:15:38.063Z,1.92
2023-03-03T13:21:05.451Z,1.63
2023-03-03T13:26:17.274Z,1.60
2023-03-03T13:31:22.792Z,1.60
2023-03-03T13:36:31.592Z,1.27
2023-03-03T13:41:44.585Z,1.40
2023-03-03T13:47:19.317Z,1.45
2023-03-03T13:52:24.189Z,1.85
2023-03-03T13:57:46.051Z,2.03
2023-03-03T14:02:48.262Z,2.10
2023-03-03T14:08:01.061Z,2.30
2023-03-03T14:13:20.699Z,2.05
2023-03-03T14:18:30.818Z,2.58
2023-03-03T14:23:39.615Z,2.42
2023-03-03T14:28:45.302Z,19.33
2023-03-03T14:34:25.978Z,2.30
2023-03-03T14:39:36.336Z,2.38
2023-03-03T14:44:55.220Z,2.55
2023-03-03T14:50:00.586Z,1.80
2023-03-03T14:55:38.157Z,1.73
2023-03-03T15:00:46.252Z,1.58
2023-03-03T15:05:59.750Z,1.25
2023-03-03T15:11:22.869Z,1.40
2023-03-03T15:16:35.756Z,1.20
2023-03-03T15:21:49.699Z,1.10
2023-03-03T15:27:23.636Z,1.10
2023-03-03T15:32:45.677Z,1.10
2023-03-03T15:38:08.291Z,1.20
2023-03-03T15:43:19.601Z,1.27
2023-03-03T15:49:13.896Z,1.17
2023-03-03T15:59:46.527Z,1.10
2023-03-03T16:04:51.632Z,1.48
2023-03-03T16:10:22.554Z,1.58
2023-03-03T16:15:34.394Z,1.80
2023-03-03T16:20:59.707Z,1.98
2023-03-03T16:26:23.978Z,1.88
2023-03-03T16:31:52.796Z,1.88
2023-03-03T16:37:23.290Z,2.05
2023-03-03T16:42:29.839Z,1.75
2023-03-03T16:47:37.823Z,1.70
2023-03-03T16:52:54.961Z,2.15
2023-03-03T16:57:58.722Z,2.05
2023-03-03T17:03:15.129Z,3.28
2023-03-03T17:08:43.325Z,14.57
2023-03-03T17:14:26.619Z,3.85
2023-03-03T17:19:49.361Z,8.38
2023-03-03T17:25:01.334Z,4.78
2023-03-03T17:30:24.261Z,7.57
2023-03-03T17:35:36.661Z,5.00
2023-03-03T17:41:05.589Z,4.70
2023-03-03T17:46:33.424Z,2.40
2023-03-03T17:52:12.123Z,8.07
2023-03-03T17:57:33.851Z,3.00
2023-03-03T18:02:42.425Z,2.75
2023-03-03T18:07:57.115Z,2.75
2023-03-03T18:13:22.767Z,2.80
2023-03-03T18:18:43.741Z,3.22
2023-03-03T18:23:49.654Z,2.83
2023-03-03T18:29:05.883Z,3.30
2023-03-03T18:34:20.860Z,3.10
2023-03-03T18:39:47.148Z,3.63
2023-03-03T18:44:50.005Z,3.67
2023-03-03T18:50:15.931Z,2.88
2023-03-03T18:55:18.531Z,3.10
2023-03-03T19:00:30.767Z,3.00
2023-03-03T19:05:47.305Z,3.38
2023-03-03T19:10:52.368Z,3.17
2023-03-03T19:15:58.150Z,3.58
2023-03-03T19:21:06.489Z,2.92
2023-03-03T19:26:30.643Z,3.17
2023-03-03T19:31:46.726Z,3.10
2023-03-03T19:37:05.144Z,2.92
2023-03-03T19:42:13.142Z,3.05
2023-03-03T19:47:50.678Z,3.65
2023-03-03T19:53:03.492Z,2.88
2023-03-03T19:58:42.288Z,2.83
2023-03-03T20:04:01.991Z,2.85
2023-03-03T20:09:22.782Z,2.72
2023-03-03T20:14:46.304Z,3.00
2023-03-03T20:20:01.800Z,3.67
2023-03-03T20:25:10.520Z,2.95
2023-03-03T20:30:18.230Z,2.90
2023-03-03T20:36:03.336Z,3.38
2023-03-03T20:41:31.852Z,3.05
2023-03-03T20:46:52.465Z,3.50
2023-03-03T20:52:00.666Z,2.92
2023-03-03T20:57:15.926Z,2.63
2023-03-03T21:02:44.248Z,3.75
2023-03-03T21:07:58.410Z,3.05
2023-03-03T21:13:31.054Z,3.65
2023-03-03T21:18:33.143Z,3.95
2023-03-03T21:23:35.461Z,3.80
2023-03-03T21:28:37.626Z,3.83
2023-03-03T21:33:50.295Z,3.08
2023-03-03T21:38:54.036Z,3.38
2023-03-03T21:43:56.405Z,2.40
2023-03-03T21:48:58.490Z,2.30
2023-03-03T21:54:00.798Z,2.17
2023-03-03T21:59:02.950Z,3.28
2023-03-03T22:04:05.847Z,2.47
2023-03-03T22:09:08.065Z,2.47
2023-03-03T22:14:10.533Z,2.50
2023-03-03T22:19:12.706Z,2.63
2023-03-03T22:24:14.824Z,2.38
2023-03-03T22:29:23.116Z,2.28
2023-03-03T22:34:25.324Z,1.70
2023-03-03T22:39:27.510Z,2.00
2023-03-03T22:44:29.620Z,2.50
2023-03-03T22:49:31.787Z,2.05
2023-03-03T22:54:33.853Z,2.60
2023-03-03T22:59:35.962Z,2.45
2023-03-03T23:04:38.173Z,2.17
2023-03-03T23:09:40.440Z,2.10
2023-03-03T23:14:42.538Z,2.22
2023-03-03T23:19:46.434Z,2.03
2023-03-03T23:24:48.500Z,2.00
2023-03-03T23:29:52.362Z,2.58
2023-03-03T23:34:55.191Z,1.95
2023-03-03T23:39:57.489Z,1.95
2023-03-03T23:44:59.726Z,2.13
2023-03-03T23:50:01.868Z,1.88
2023-03-03T23:55:05.324Z,1.80
